createdAt,value
2022-09-18T00:02:24.338Z,100.00
2022-09-18T00:04:51.111Z,100.00
2022-09-18T00:07:17.988Z,100.00
2022-09-18T00:09:45.010Z,100.00
2022-09-18T00:12:11.992Z,100.00
2022-09-18T00:14:38.852Z,100.00
2022-09-18T00:17:09.005Z,100.00
2022-09-18T00:19:36.196Z,100.00
2022-09-18T00:22:02.963Z,100.00
2022-09-18T00:24:29.926Z,100.00
2022-09-18T00:26:56.693Z,100.00
2022-09-18T00:29:23.502Z,100.00
2022-09-18T00:31:50.630Z,100.00
2022-09-18T00:34:17.388Z,100.00
2022-09-18T00:36:44.585Z,100.00
2022-09-18T00:39:12.414Z,100.00
2022-09-18T00:41:41.915Z,100.00
2022-09-18T00:44:31.498Z,100.00
2022-09-18T00:47:07.171Z,100.00
2022-09-18T00:49:34.615Z,100.00
2022-09-18T00:52:02.463Z,100.00
2022-09-18T00:54:37.300Z,100.00
2022-09-18T00:57:27.227Z,100.00
2022-09-18T00:59:54.865Z,100.00
2022-09-18T01:02:22.080Z,100.00
2022-09-18T01:04:50.282Z,100.00
2022-09-18T01:07:29.153Z,100.00
2022-09-18T01:10:12.857Z,100.00
2022-09-18T01:13:01.190Z,100.00
2022-09-18T01:15:28.105Z,100.00
2022-09-18T01:18:05.615Z,100.00
2022-09-18T01:20:53.580Z,100.00
2022-09-18T01:23:57.678Z,100.00
2022-09-18T01:26:41.431Z,100.00
2022-09-18T01:29:28.491Z,100.00
2022-09-18T01:32:01.511Z,100.00
2022-09-18T01:34:49.915Z,100.00
2022-09-18T01:37:38.472Z,100.00
2022-09-18T01:40:17.544Z,100.00
2022-09-18T01:42:47.534Z,100.00
2022-09-18T01:45:20.305Z,100.00
2022-09-18T01:48:01.427Z,100.00
2022-09-18T01:50:32.603Z,100.00
2022-09-18T01:53:08.517Z,100.00
2022-09-18T01:55:38.548Z,100.00
2022-09-18T01:58:19.086Z,100.00
2022-09-18T02:00:51.405Z,100.00
2022-09-18T02:03:27.890Z,100.00
2022-09-18T02:06:00.627Z,100.00
2022-09-18T02:08:41.527Z,100.00
2022-09-18T02:11:13.663Z,100.00
2022-09-18T02:14:16.427Z,100.00
2022-09-18T02:16:46.522Z,100.00
2022-09-18T02:19:28.614Z,100.00
2022-09-18T02:21:58.638Z,100.00
2022-09-18T02:24:31.285Z,100.00
2022-09-18T02:27:01.798Z,100.00
2022-09-18T02:29:30.584Z,100.00
2022-09-18T02:32:00.104Z,100.00
2022-09-18T02:34:27.920Z,100.00
2022-09-18T02:37:16.203Z,100.00
2022-09-18T02:40:18.304Z,100.00
2022-09-18T02:42:59.192Z,100.00
2022-09-18T02:45:36.869Z,100.00
2022-09-18T02:48:12.599Z,100.00
2022-09-18T02:51:08.670Z,100.00
2022-09-18T02:53:51.675Z,100.00
2022-09-18T02:56:41.203Z,100.00
2022-09-18T02:59:18.055Z,100.00
2022-09-18T03:01:46.268Z,100.00
2022-09-18T03:04:19.294Z,100.00
2022-09-18T03:06:46.046Z,100.00
2022-09-18T03:09:13.714Z,100.00
2022-09-18T03:11:40.643Z,100.00
2022-09-18T03:14:07.620Z,100.00
2022-09-18T03:16:34.435Z,100.00
2022-09-18T03:19:01.575Z,100.00
2022-09-18T03:21:28.411Z,100.00
2022-09-18T03:23:55.432Z,100.00
2022-09-18T03:26:23.096Z,100.00
2022-09-18T03:28:50.029Z,100.00
2022-09-18T03:31:16.839Z,100.00
2022-09-18T03:33:43.867Z,100.00
2022-09-18T03:36:10.637Z,100.00
2022-09-18T03:38:37.886Z,100.00
2022-09-18T03:41:05.127Z,100.00
2022-09-18T03:43:31.910Z,100.00
2022-09-18T03:45:58.688Z,100.00
2022-09-18T03:48:25.643Z,100.00
2022-09-18T03:50:52.415Z,100.00
2022-09-18T03:53:19.448Z,100.00
2022-09-18T03:55:49.395Z,100.00
2022-09-18T03:58:16.561Z,100.00
2022-09-18T04:00:43.493Z,100.00
2022-09-18T04:03:10.655Z,100.00
2022-09-18T04:05:37.589Z,100.00
2022-09-18T04:08:05.356Z,100.00
2022-09-18T04:10:33.102Z,100.00
2022-09-18T04:12:59.889Z,100.00
2022-09-18T04:15:26.582Z,100.00
2022-09-18T04:17:53.504Z,100.00
2022-09-18T04:20:20.240Z,100.00
2022-09-18T04:22:47.003Z,100.00
2022-09-18T04:25:13.968Z,100.00
2022-09-18T04:27:40.687Z,100.00
2022-09-18T04:30:08.552Z,100.00
2022-09-18T04:32:35.578Z,100.00
2022-09-18T04:35:02.650Z,100.00
2022-09-18T04:37:29.472Z,100.00
2022-09-18T04:39:57.232Z,100.00
2022-09-18T04:42:24.052Z,100.00
2022-09-18T04:44:50.807Z,100.00
2022-09-18T04:47:17.767Z,100.00
2022-09-18T04:49:44.503Z,100.00
2022-09-18T04:52:11.275Z,100.00
2022-09-18T04:54:38.253Z,100.00
2022-09-18T04:57:05.412Z,100.00
2022-09-18T04:59:32.119Z,100.00
2022-09-18T05:01:59.500Z,100.00
2022-09-18T05:04:26.315Z,100.00
2022-09-18T05:06:53.128Z,100.00
2022-09-18T05:09:20.126Z,100.00
2022-09-18T05:11:47.242Z,100.00
2022-09-18T05:14:14.029Z,100.00
2022-09-18T05:16:41.110Z,100.00
2022-09-18T05:19:07.891Z,100.00
2022-09-18T05:21:34.809Z,100.00
2022-09-18T05:24:02.071Z,100.00
2022-09-18T05:26:30.435Z,100.00
2022-09-18T05:28:57.415Z,100.00
2022-09-18T05:31:24.585Z,100.00
2022-09-18T05:33:51.489Z,100.00
2022-09-18T05:36:18.223Z,100.00
2022-09-18T05:38:45.697Z,100.00
2022-09-18T05:41:12.479Z,100.00
2022-09-18T05:43:39.238Z,100.00
2022-09-18T05:46:06.607Z,100.00
2022-09-18T05:48:33.369Z,100.00
2022-09-18T05:51:00.130Z,100.00
2022-09-18T05:53:27.141Z,100.00
2022-09-18T05:55:53.932Z,100.00
2022-09-18T05:58:21.284Z,100.00
2022-09-18T06:00:48.759Z,100.00
2022-09-18T06:03:16.900Z,100.00
2022-09-18T06:05:50.889Z,100.00
2022-09-18T06:08:18.173Z,100.00
2022-09-18T06:10:45.098Z,100.00
2022-09-18T06:13:15.678Z,100.00
2022-09-18T06:15:52.381Z,100.00
2022-09-18T06:18:19.794Z,100.00
2022-09-18T06:20:55.683Z,100.00
2022-09-18T06:23:24.501Z,100.00
2022-09-18T06:26:02.807Z,100.00
2022-09-18T06:28:34.154Z,100.00
2022-09-18T06:31:03.255Z,100.00
2022-09-18T06:33:30.096Z,100.00
2022-09-18T06:35:56.881Z,100.00
2022-09-18T06:38:23.899Z,100.00
2022-09-18T06:40:54.657Z,100.00
2022-09-18T06:43:21.453Z,100.00
2022-09-18T06:45:53.196Z,100.00
2022-09-18T06:48:20.460Z,100.00
2022-09-18T06:51:13.305Z,100.00
2022-09-18T06:53:40.268Z,100.00
2022-09-18T06:56:07.012Z,100.00
2022-09-18T06:58:33.782Z,100.00
2022-09-18T07:01:01.179Z,100.00
2022-09-18T07:03:28.131Z,100.00
2022-09-18T07:05:54.983Z,100.00
2022-09-18T07:08:21.961Z,100.00
2022-09-18T07:10:48.767Z,100.00
2022-09-18T07:13:15.853Z,100.00
2022-09-18T07:15:46.663Z,100.00
2022-09-18T07:18:13.427Z,100.00
2022-09-18T07:20:40.268Z,100.00
2022-09-18T07:23:07.199Z,100.00
2022-09-18T07:25:34.699Z,100.00
2022-09-18T07:28:08.033Z,100.00
2022-09-18T07:30:36.291Z,100.00
2022-09-18T07:33:04.683Z,100.00
2022-09-18T07:35:32.865Z,100.00
2022-09-18T07:38:00.746Z,100.00
2022-09-18T07:40:28.512Z,100.00
2022-09-18T07:43:00.566Z,100.00
2022-09-18T07:45:27.783Z,100.00
2022-09-18T07:47:54.679Z,100.00
2022-09-18T07:50:23.051Z,100.00
2022-09-18T07:52:55.020Z,100.00
2022-09-18T07:55:23.135Z,100.00
2022-09-18T07:57:58.436Z,100.00
2022-09-18T08:00:26.881Z,100.00
2022-09-18T08:03:03.433Z,100.00
2022-09-18T08:05:30.880Z,100.00
2022-09-18T08:08:03.340Z,100.00
2022-09-18T08:10:30.951Z,100.00
2022-09-18T08:12:58.083Z,100.00
2022-09-18T08:15:25.131Z,100.00
2022-09-18T08:17:52.228Z,100.00
2022-09-18T08:20:19.275Z,100.00
2022-09-18T08:22:46.906Z,100.00
2022-09-18T08:25:14.801Z,100.00
2022-09-18T08:27:42.204Z,100.00
2022-09-18T08:30:12.184Z,100.00
2022-09-18T08:32:40.653Z,100.00
2022-09-18T08:35:10.987Z,100.00
2022-09-18T08:37:37.960Z,100.00
2022-09-18T08:40:05.698Z,100.00
2022-09-18T08:42:33.516Z,100.00
2022-09-18T08:45:09.245Z,100.00
2022-09-18T08:47:41.554Z,100.00
2022-09-18T08:50:24.650Z,100.00
2022-09-18T08:52:58.185Z,100.00
2022-09-18T08:55:31.116Z,100.00
2022-09-18T08:58:07.015Z,100.00
2022-09-18T09:00:55.032Z,100.00
2022-09-18T09:03:25.100Z,100.00
2022-09-18T09:05:56.455Z,100.00
2022-09-18T09:08:36.522Z,100.00
2022-09-18T09:11:03.218Z,100.00
2022-09-18T09:13:45.670Z,100.00
2022-09-18T09:16:24.049Z,100.00
2022-09-18T09:19:00.345Z,100.00
2022-09-18T09:21:39.107Z,100.00
2022-09-18T09:24:24.876Z,100.00
2022-09-18T09:26:54.013Z,100.00
2022-09-18T09:29:20.866Z,100.00
2022-09-18T09:31:54.161Z,100.00
2022-09-18T09:34:44.473Z,100.00
2022-09-18T09:37:20.544Z,100.00
2022-09-18T09:39:57.251Z,100.00
2022-09-18T09:42:27.088Z,100.00
2022-09-18T09:45:02.388Z,100.00
2022-09-18T09:47:30.349Z,100.00
2022-09-18T09:50:09.083Z,100.00
2022-09-18T09:52:38.023Z,100.00
2022-09-18T09:55:07.511Z,100.00
2022-09-18T09:57:44.098Z,100.00
2022-09-18T10:00:15.560Z,100.00
2022-09-18T10:03:04.360Z,100.00
2022-09-18T10:05:31.287Z,100.00
2022-09-18T10:08:23.986Z,100.00
2022-09-18T10:11:01.420Z,100.00
2022-09-18T10:13:31.511Z,100.00
2022-09-18T10:16:03.270Z,100.00
2022-09-18T10:18:34.323Z,100.00
2022-09-18T10:21:23.931Z,100.00
2022-09-18T10:23:55.084Z,100.00
2022-09-18T10:26:28.295Z,100.00
2022-09-18T10:28:55.323Z,100.00
2022-09-18T10:31:22.248Z,100.00
2022-09-18T10:33:53.172Z,100.00
2022-09-18T10:36:42.934Z,100.00
2022-09-18T10:39:31.720Z,100.00
2022-09-18T10:42:00.492Z,100.00
2022-09-18T10:44:30.748Z,100.00
2022-09-18T10:47:10.315Z,93.77
2022-09-18T10:49:52.430Z,96.73
2022-09-18T10:52:34.486Z,92.33
2022-09-18T10:55:09.282Z,90.98
2022-09-18T10:57:47.975Z,88.57
2022-09-18T11:00:21.122Z,87.15
2022-09-18T11:02:52.882Z,85.68
2022-09-18T11:05:22.953Z,84.11
2022-09-18T11:07:56.262Z,83.54
2022-09-18T11:10:25.746Z,81.29
2022-09-18T11:12:59.003Z,84.45
2022-09-18T11:15:29.968Z,84.56
2022-09-18T11:17:59.004Z,85.59
2022-09-18T11:20:32.837Z,82.21
2022-09-18T11:23:29.009Z,78.54
2022-09-18T11:26:26.961Z,76.00
2022-09-18T11:28:59.966Z,75.60
2022-09-18T11:31:38.404Z,78.10
2022-09-18T11:34:18.434Z,75.20
2022-09-18T11:36:49.177Z,76.49
2022-09-18T11:39:24.648Z,74.31
2022-09-18T11:41:54.204Z,75.64
2022-09-18T11:44:31.629Z,75.11
2022-09-18T11:47:13.622Z,79.46
2022-09-18T11:49:49.554Z,80.14
2022-09-18T11:52:43.490Z,81.56
2022-09-18T11:55:17.521Z,83.89
2022-09-18T11:57:59.354Z,85.63
2022-09-18T12:00:32.444Z,88.27
2022-09-18T12:03:17.088Z,87.30
2022-09-18T12:06:04.292Z,87.52
2022-09-18T12:08:41.953Z,85.19
2022-09-18T12:11:21.078Z,86.55
2022-09-18T12:14:20.279Z,80.40
2022-09-18T12:16:59.143Z,82.40
2022-09-18T12:19:30.362Z,83.06
2022-09-18T12:22:11.432Z,82.86
2022-09-18T12:24:38.394Z,82.84
2022-09-18T12:27:28.814Z,83.08
2022-09-18T12:30:30.457Z,83.54
2022-09-18T12:33:09.597Z,81.70
2022-09-18T12:36:04.804Z,81.24
2022-09-18T12:38:31.744Z,81.44
2022-09-18T12:41:41.974Z,82.80
2022-09-18T12:44:18.597Z,81.85
2022-09-18T12:46:56.895Z,83.35
2022-09-18T12:49:32.690Z,81.62
2022-09-18T12:52:31.535Z,80.77
2022-09-18T12:55:40.408Z,81.61
2022-09-18T12:58:32.123Z,83.13
2022-09-18T13:01:03.871Z,82.33
2022-09-18T13:03:35.250Z,82.59
2022-09-18T13:06:07.597Z,83.28
2022-09-18T13:09:01.900Z,83.80
2022-09-18T13:11:58.762Z,79.14
2022-09-18T13:15:01.057Z,80.08
2022-09-18T13:17:48.795Z,77.10
2022-09-18T13:20:40.391Z,73.35
2022-09-18T13:23:33.515Z,71.85
2022-09-18T13:26:02.571Z,71.72
2022-09-18T13:28:29.841Z,71.46
2022-09-18T13:31:14.966Z,71.54
2022-09-18T13:34:04.381Z,70.66
2022-09-18T13:36:33.659Z,73.37
2022-09-18T13:39:05.249Z,75.17
2022-09-18T13:41:49.248Z,74.05
2022-09-18T13:44:30.824Z,75.96
2022-09-18T13:47:10.037Z,75.40
2022-09-18T13:49:47.282Z,74.99
2022-09-18T13:52:32.896Z,72.80
2022-09-18T13:55:13.151Z,71.29
2022-09-18T13:57:41.505Z,71.78
2022-09-18T14:00:20.843Z,71.07
2022-09-18T14:02:49.448Z,72.86
2022-09-18T14:05:29.672Z,71.21
2022-09-18T14:08:27.104Z,71.69
2022-09-18T14:11:15.816Z,73.11
2022-09-18T14:13:46.346Z,74.65
2022-09-18T14:16:19.349Z,75.13
2022-09-18T14:18:49.160Z,76.81
2022-09-18T14:21:19.084Z,77.26
2022-09-18T14:23:48.499Z,77.88
2022-09-18T14:26:39.679Z,78.74
2022-09-18T14:29:19.483Z,80.65
2022-09-18T14:31:47.225Z,81.00
2022-09-18T14:34:38.036Z,80.21
2022-09-18T14:56:36.605Z,78.42
2022-09-18T14:59:07.061Z,78.24
2022-09-18T15:01:38.586Z,79.11
2022-09-18T15:04:11.650Z,80.31
2022-09-18T15:06:44.159Z,81.65
2022-09-18T15:09:15.210Z,81.30
2022-09-18T15:12:01.832Z,82.59
2022-09-18T15:14:42.752Z,83.57
2022-09-18T15:17:27.945Z,84.07
2022-09-18T15:20:16.254Z,87.94
2022-09-18T15:22:43.722Z,92.34
2022-09-18T15:25:15.271Z,96.53
2022-09-18T15:27:44.268Z,98.84
2022-09-18T15:30:20.046Z,100.00
2022-09-18T15:33:05.090Z,100.00
2022-09-18T15:35:35.416Z,100.00
2022-09-18T15:38:05.710Z,100.00
2022-09-18T15:40:35.964Z,100.00
2022-09-18T15:43:07.914Z,100.00
2022-09-18T15:45:36.903Z,100.00
2022-09-18T15:48:35.354Z,100.00
2022-09-18T15:51:23.201Z,100.00
2022-09-18T15:54:09.210Z,100.00
2022-09-18T15:56:39.669Z,100.00
2022-09-18T15:59:16.575Z,100.00
2022-09-18T16:01:49.920Z,100.00
2022-09-18T16:04:24.311Z,100.00
2022-09-18T16:07:00.373Z,100.00
2022-09-18T16:09:41.157Z,100.00
2022-09-18T16:12:30.783Z,100.00
2022-09-18T16:15:20.210Z,100.00
2022-09-18T16:17:47.303Z,100.00
2022-09-18T16:20:38.309Z,100.00
2022-09-18T16:23:11.086Z,100.00
2022-09-18T16:25:41.569Z,100.00
2022-09-18T16:28:24.572Z,100.00
2022-09-18T16:30:52.242Z,100.00
2022-09-18T16:33:22.407Z,100.00
2022-09-18T16:36:03.154Z,100.00
2022-09-18T16:38:31.294Z,100.00
2022-09-18T16:40:58.474Z,100.00
2022-09-18T16:43:25.421Z,100.00
2022-09-18T16:45:52.691Z,100.00
2022-09-18T16:48:19.858Z,100.00
2022-09-18T16:50:48.114Z,100.00
2022-09-18T16:53:15.252Z,100.00
2022-09-18T16:55:49.711Z,100.00
2022-09-18T16:58:19.180Z,100.00
2022-09-18T17:00:46.383Z,100.00
2022-09-18T17:03:13.420Z,100.00
2022-09-18T17:05:41.540Z,100.00
2022-09-18T17:08:08.659Z,100.00
2022-09-18T17:10:36.016Z,100.00
2022-09-18T17:13:04.596Z,100.00
2022-09-18T17:15:31.670Z,100.00
2022-09-18T17:17:58.520Z,100.00
2022-09-18T17:20:25.342Z,100.00
2022-09-18T17:22:53.136Z,100.00
2022-09-18T17:25:20.060Z,100.00
2022-09-18T17:27:49.914Z,100.00
2022-09-18T17:30:17.498Z,100.00
2022-09-18T17:32:44.349Z,100.00
2022-09-18T17:35:11.068Z,100.00
2022-09-18T17:37:38.056Z,100.00
2022-09-18T17:40:05.277Z,100.00
2022-09-18T17:42:32.126Z,100.00
2022-09-18T17:44:59.219Z,100.00
2022-09-18T17:47:26.058Z,100.00
2022-09-18T17:49:53.904Z,100.00
2022-09-18T17:52:20.937Z,100.00
2022-09-18T17:54:47.723Z,100.00
2022-09-18T17:57:14.490Z,100.00
2022-09-18T17:59:44.105Z,100.00
2022-09-18T18:02:13.097Z,100.00
2022-09-18T18:04:40.301Z,100.00
2022-09-18T18:07:07.311Z,100.00
2022-09-18T18:09:37.610Z,100.00
2022-09-18T18:12:05.509Z,100.00
2022-09-18T18:14:34.960Z,100.00
2022-09-18T18:17:01.911Z,100.00
2022-09-18T18:19:28.861Z,100.00
2022-09-18T18:21:56.000Z,100.00
2022-09-18T18:24:23.901Z,100.00
2022-09-18T18:26:50.895Z,100.00
2022-09-18T18:29:19.417Z,100.00
2022-09-18T18:31:49.180Z,100.00
2022-09-18T18:34:21.101Z,100.00
2022-09-18T18:36:50.303Z,100.00
2022-09-18T18:39:19.946Z,100.00
2022-09-18T18:41:47.299Z,100.00
2022-09-18T18:44:14.818Z,100.00
2022-09-18T18:46:42.668Z,100.00
2022-09-18T18:49:12.625Z,100.00
2022-09-18T18:51:47.622Z,100.00
2022-09-18T18:54:21.957Z,100.00
2022-09-18T18:56:49.726Z,100.00
2022-09-18T18:59:18.948Z,100.00
2022-09-18T19:01:47.480Z,100.00
2022-09-18T19:04:19.292Z,100.00
2022-09-18T19:06:46.711Z,100.00
2022-09-18T19:09:22.578Z,100.00
2022-09-18T19:11:51.057Z,100.00
2022-09-18T19:14:26.110Z,100.00
2022-09-18T19:16:54.655Z,100.00
2022-09-18T19:19:23.780Z,100.00
2022-09-18T19:21:51.363Z,100.00
2022-09-18T19:24:18.708Z,100.00
2022-09-18T19:26:47.111Z,100.00
2022-09-18T19:29:17.928Z,100.00
2022-09-18T19:31:46.532Z,100.00
2022-09-18T19:34:15.801Z,100.00
2022-09-18T19:36:46.747Z,100.00
2022-09-18T19:39:14.455Z,100.00
2022-09-18T19:41:59.316Z,100.00
2022-09-18T19:44:34.293Z,100.00
2022-09-18T19:47:14.634Z,100.00
2022-09-18T19:49:41.710Z,100.00
2022-09-18T19:52:25.592Z,100.00
2022-09-18T19:54:54.587Z,100.00
2022-09-18T19:57:23.215Z,100.00
2022-09-18T19:59:55.243Z,100.00
2022-09-18T20:02:24.213Z,100.00
2022-09-18T20:04:51.274Z,100.00
2022-09-18T20:07:18.171Z,100.00
2022-09-18T20:09:45.162Z,100.00
2022-09-18T20:12:12.802Z,100.00
2022-09-18T20:14:39.673Z,100.00
2022-09-18T20:17:06.990Z,100.00
2022-09-18T20:19:34.513Z,100.00
2022-09-18T20:22:02.837Z,100.00
2022-09-18T20:24:31.383Z,100.00
2022-09-18T20:26:59.514Z,100.00
2022-09-18T20:29:27.529Z,100.00
2022-09-18T20:31:54.969Z,100.00
2022-09-18T20:34:24.842Z,100.00
2022-09-18T20:36:52.272Z,100.00
2022-09-18T20:39:19.515Z,100.00
2022-09-18T20:41:46.571Z,100.00
2022-09-18T20:44:13.986Z,100.00
2022-09-18T20:46:42.508Z,100.00
2022-09-18T20:49:10.768Z,100.00
2022-09-18T20:51:37.500Z,100.00
2022-09-18T20:54:09.198Z,100.00
2022-09-18T20:56:44.675Z,100.00
2022-09-18T20:59:16.160Z,100.00
2022-09-18T21:01:44.312Z,100.00
2022-09-18T21:04:17.119Z,100.00
2022-09-18T21:06:48.775Z,100.00
2022-09-18T21:09:15.763Z,100.00
2022-09-18T21:11:44.792Z,100.00
2022-09-18T21:14:14.863Z,100.00
2022-09-18T21:16:43.072Z,100.00
2022-09-18T21:19:12.057Z,100.00
2022-09-18T21:21:39.613Z,100.00
2022-09-18T21:24:08.819Z,100.00
2022-09-18T21:26:46.798Z,100.00
2022-09-18T21:29:17.770Z,100.00
2022-09-18T21:31:46.000Z,100.00
2022-09-18T21:34:24.414Z,100.00
2022-09-18T21:37:01.807Z,100.00
2022-09-18T21:39:29.966Z,100.00
2022-09-18T21:41:58.759Z,100.00
2022-09-18T21:44:27.563Z,100.00
2022-09-18T21:47:00.032Z,100.00
2022-09-18T21:49:29.139Z,100.00
2022-09-18T21:52:07.685Z,100.00
2022-09-18T21:54:35.218Z,100.00
2022-09-18T21:57:02.003Z,100.00
2022-09-18T21:59:30.665Z,100.00
2022-09-18T22:01:59.020Z,100.00
2022-09-18T22:04:28.346Z,100.00
2022-09-18T22:06:57.155Z,100.00
2022-09-18T22:09:32.814Z,100.00
2022-09-18T22:12:01.336Z,100.00
2022-09-18T22:14:32.432Z,100.00
2022-09-18T22:17:04.531Z,100.00
2022-09-18T22:19:33.388Z,100.00
2022-09-18T22:22:01.486Z,100.00
2022-09-18T22:24:29.207Z,100.00
2022-09-18T22:27:00.019Z,100.00
2022-09-18T22:29:34.365Z,100.00
2022-09-18T22:32:01.713Z,100.00
2022-09-18T22:34:31.242Z,100.00
2022-09-18T22:37:00.905Z,100.00
2022-09-18T22:39:28.781Z,100.00
2022-09-18T22:41:55.972Z,100.00
2022-09-18T22:44:22.919Z,100.00
2022-09-18T22:46:55.049Z,100.00
2022-09-18T22:49:23.335Z,100.00
2022-09-18T22:51:50.759Z,100.00
2022-09-18T22:54:23.913Z,100.00
2022-09-18T22:56:52.349Z,100.00
2022-09-18T22:59:21.941Z,100.00
2022-09-18T23:01:53.933Z,100.00
2022-09-18T23:04:23.630Z,100.00
2022-09-18T23:06:51.086Z,100.00
2022-09-18T23:09:19.270Z,100.00
2022-09-18T23:11:49.140Z,100.00
2022-09-18T23:14:18.653Z,100.00
2022-09-18T23:16:45.597Z,100.00
2022-09-18T23:19:26.119Z,100.00
2022-09-18T23:21:53.981Z,100.00
2022-09-18T23:24:22.469Z,100.00
2022-09-18T23:26:51.550Z,100.00
2022-09-18T23:29:21.195Z,100.00
2022-09-18T23:31:54.205Z,100.00
2022-09-18T23:34:23.560Z,100.00
2022-09-18T23:36:53.273Z,100.00
2022-09-18T23:39:27.010Z,100.00
2022-09-18T23:41:56.141Z,100.00
2022-09-18T23:44:23.598Z,100.00
2022-09-18T23:46:51.124Z,100.00
2022-09-18T23:49:23.762Z,100.00
2022-09-18T23:51:54.067Z,100.00
2022-09-18T23:54:28.577Z,100.00
2022-09-18T23:56:55.860Z,100.00
2022-09-18T23:59:24.688Z,100.00
